Toomsuba, Mississippi
Current Conditions -  °F | °C
As of 12:56 PM on Sunday 21 Dec 2014 (Local Time) from KNMM Reporting Station
Overcast Overcast  
Wind Chill: 48°   Ceiling: 700
Heat Index: 48°   Visibility: 7mi
Dew Point: 44°   Wind: 0mph
Humidity: 86%   Direction: NA
Pressure: 30.1"   Gusts: NA
Location:  32.42°N, 88.51°W
Report Text: KNMM 211856Z AUTO 00000KT 7SM OVC007 09/07 A3010 RMK AO2 SLP204 T00890067
Loading
Personal Weather Stations






























Interactive Weather Map New forecast layout! Learn more

10-Day Weather Forecast

Advertisements
Track Severe Weather on mobile